createdAt,value
2023-05-19T00:00:28.812Z,5.80
2023-05-19T00:03:21.959Z,5.30
2023-05-19T00:05:57.360Z,5.50
2023-05-19T00:08:26.580Z,5.10
2023-05-19T00:10:55.170Z,4.90
2023-05-19T00:13:25.889Z,5.40
2023-05-19T00:15:55.136Z,5.30
2023-05-19T00:18:23.459Z,5.40
2023-05-19T00:20:52.484Z,5.60
2023-05-19T00:23:20.702Z,5.50
2023-05-19T00:25:54.145Z,5.60
2023-05-19T00:28:22.244Z,5.30
2023-05-19T00:30:52.011Z,5.80
2023-05-19T00:33:20.157Z,5.30
2023-05-19T00:35:48.416Z,5.30
2023-05-19T00:38:16.608Z,5.30
2023-05-19T00:40:45.488Z,5.50
2023-05-19T00:43:13.672Z,5.50
2023-05-19T00:45:41.909Z,5.20
2023-05-19T00:48:10.264Z,5.50
2023-05-19T00:50:38.743Z,5.40
2023-05-19T00:53:07.809Z,5.10
2023-05-19T00:55:40.601Z,5.20
2023-05-19T00:58:10.329Z,5.60
2023-05-19T01:00:39.910Z,5.60
2023-05-19T01:03:11.526Z,4.90
2023-05-19T01:05:42.334Z,5.10
2023-05-19T01:08:10.901Z,5.30
2023-05-19T01:10:42.075Z,4.60
2023-05-19T01:13:15.950Z,4.70
2023-05-19T01:16:00.288Z,4.70
2023-05-19T01:18:39.887Z,5.30
2023-05-19T01:21:37.366Z,5.30
2023-05-19T01:25:03.267Z,4.90
2023-05-19T01:27:38.307Z,4.40
2023-05-19T01:30:07.020Z,5.10
2023-05-19T01:32:37.225Z,5.40
2023-05-19T01:35:07.574Z,5.50
2023-05-19T01:37:37.956Z,5.40
2023-05-19T01:40:08.123Z,5.40
2023-05-19T01:42:40.134Z,5.60
2023-05-19T01:45:11.663Z,4.80
2023-05-19T01:47:44.223Z,5.10
2023-05-19T01:50:12.700Z,5.20
2023-05-19T01:52:41.103Z,4.90
2023-05-19T01:55:09.800Z,5.10
2023-05-19T01:58:07.462Z,5.40
2023-05-19T02:00:56.793Z,5.10
2023-05-19T02:03:41.587Z,4.80
2023-05-19T02:06:38.227Z,4.40
2023-05-19T02:09:15.289Z,4.80
2023-05-19T02:12:16.741Z,5.00
2023-05-19T02:15:09.844Z,4.50
2023-05-19T02:17:50.994Z,4.20
2023-05-19T02:20:24.775Z,5.20
2023-05-19T02:22:52.981Z,4.80
2023-05-19T02:25:28.712Z,5.10
2023-05-19T02:27:58.815Z,5.00
2023-05-19T02:30:26.969Z,5.30
2023-05-19T02:32:57.789Z,5.80
2023-05-19T02:35:26.113Z,5.00
2023-05-19T02:38:03.385Z,5.00
2023-05-19T02:40:31.783Z,5.70
2023-05-19T02:43:00.319Z,5.60
2023-05-19T02:45:36.502Z,5.60
2023-05-19T02:48:05.137Z,5.80
2023-05-19T02:50:33.440Z,5.20
2023-05-19T02:53:13.329Z,5.90
2023-05-19T02:55:42.566Z,5.50
2023-05-19T02:58:13.194Z,5.00
2023-05-19T03:00:45.943Z,5.40
2023-05-19T03:03:15.087Z,5.40
2023-05-19T03:05:46.378Z,5.10
2023-05-19T03:08:14.794Z,5.20
2023-05-19T03:10:43.009Z,5.60
2023-05-19T03:13:13.810Z,5.10
2023-05-19T03:15:46.277Z,5.10
2023-05-19T03:18:16.958Z,5.00
2023-05-19T03:20:48.721Z,4.90
2023-05-19T03:23:16.849Z,4.90
2023-05-19T03:25:44.921Z,5.10
2023-05-19T03:28:13.566Z,5.60
2023-05-19T03:30:42.401Z,5.00
2023-05-19T03:33:17.980Z,5.80
2023-05-19T03:35:46.599Z,5.20
2023-05-19T03:38:15.900Z,5.70
2023-05-19T03:40:51.162Z,5.50
2023-05-19T03:43:19.614Z,5.70
2023-05-19T03:45:52.002Z,6.40
2023-05-19T03:48:41.349Z,6.00
2023-05-19T03:51:24.833Z,6.00
2023-05-19T03:53:55.930Z,5.20
2023-05-19T03:56:26.600Z,4.90
2023-05-19T03:58:57.675Z,5.00
2023-05-19T04:01:37.457Z,5.30
2023-05-19T04:04:08.332Z,6.00
2023-05-19T04:06:39.988Z,5.50
2023-05-19T04:09:16.209Z,5.50
2023-05-19T04:11:44.420Z,5.30
2023-05-19T04:14:17.137Z,5.20
2023-05-19T04:16:59.018Z,4.90
2023-05-19T04:19:38.013Z,5.30
2023-05-19T04:22:06.289Z,5.60
2023-05-19T04:24:46.247Z,5.30
2023-05-19T04:27:16.108Z,4.80
2023-05-19T04:29:46.221Z,5.50
2023-05-19T04:32:17.849Z,5.60
2023-05-19T04:34:47.399Z,5.10
2023-05-19T04:37:21.357Z,6.00
2023-05-19T04:39:53.056Z,5.00
2023-05-19T04:42:22.232Z,4.60
2023-05-19T04:44:51.985Z,4.70
2023-05-19T04:51:05.161Z,4.60
2023-05-19T04:53:42.253Z,5.40
2023-05-19T04:56:15.548Z,4.60
2023-05-19T04:58:53.796Z,4.70
2023-05-19T05:01:27.787Z,4.80
2023-05-19T05:04:04.467Z,5.40
2023-05-19T05:06:38.497Z,5.10
2023-05-19T05:09:07.039Z,5.20
2023-05-19T05:11:35.952Z,5.50
2023-05-19T05:14:04.661Z,4.80
2023-05-19T05:16:37.423Z,5.20
2023-05-19T05:19:14.560Z,4.90
2023-05-19T05:21:57.651Z,4.80
2023-05-19T05:24:29.589Z,5.10
2023-05-19T05:29:29.803Z,4.50
2023-05-19T05:31:58.028Z,5.10
2023-05-19T05:37:00.170Z,4.70
2023-05-19T05:39:38.134Z,4.80
2023-05-19T05:42:09.145Z,4.60
2023-05-19T05:48:23.153Z,5.20
2023-05-19T05:51:06.059Z,4.50
2023-05-19T05:53:56.623Z,4.20
2023-05-19T05:56:36.171Z,5.10
2023-05-19T05:59:07.155Z,5.70
2023-05-19T06:01:43.606Z,5.20
2023-05-19T06:04:14.888Z,5.40
2023-05-19T06:06:44.542Z,5.00
2023-05-19T06:09:15.578Z,4.70
2023-05-19T06:11:51.584Z,5.10
2023-05-19T06:14:58.894Z,4.80
2023-05-19T06:35:11.245Z,4.40
2023-05-19T06:46:20.501Z,4.20
2023-05-19T06:48:53.993Z,4.40
2023-05-19T07:02:04.919Z,4.50
2023-05-19T07:05:08.412Z,5.90
2023-05-19T07:07:38.635Z,4.20
2023-05-19T07:10:50.983Z,4.10
2023-05-19T07:17:15.819Z,3.90
2023-05-19T07:20:24.177Z,3.80
2023-05-19T07:30:08.417Z,4.40
2023-05-19T07:33:02.745Z,4.30
2023-05-19T07:38:23.543Z,4.20
2023-05-19T07:39:56.442Z,4.10
2023-05-19T07:42:33.583Z,4.20
2023-05-19T07:46:20.976Z,4.30
2023-05-19T07:49:38.010Z,4.50
2023-05-19T07:56:46.142Z,5.40
2023-05-19T08:02:28.646Z,4.30
2023-05-19T08:05:21.877Z,4.30
2023-05-19T08:07:59.990Z,4.30
2023-05-19T08:20:55.314Z,4.10
2023-05-19T08:23:41.590Z,4.50
2023-05-19T08:26:10.375Z,4.60
2023-05-19T08:28:43.880Z,4.10
2023-05-19T08:31:22.674Z,4.20
2023-05-19T08:33:51.359Z,4.40
2023-05-19T08:36:19.671Z,3.90
2023-05-19T08:39:08.424Z,4.10
2023-05-19T08:41:36.848Z,4.20
2023-05-19T08:44:07.961Z,4.20
2023-05-19T08:46:48.646Z,4.10
2023-05-19T08:49:25.566Z,4.30
2023-05-19T08:52:33.652Z,4.50
2023-05-19T08:55:44.760Z,5.00
2023-05-19T09:01:20.866Z,4.20
2023-05-19T09:07:19.682Z,4.20
2023-05-19T09:14:33.150Z,4.40
2023-05-19T09:17:39.724Z,4.50
2023-05-19T09:20:26.743Z,4.70
2023-05-19T09:25:35.237Z,4.50
2023-05-19T09:29:16.032Z,4.70
2023-05-19T09:29:48.576Z,4.80
2023-05-19T09:32:40.940Z,4.60
2023-05-19T09:36:15.783Z,4.50
2023-05-19T09:40:47.118Z,4.70
2023-05-19T09:43:21.843Z,4.20
2023-05-19T09:50:00.511Z,4.10
2023-05-19T09:53:49.756Z,4.30
2023-05-19T09:59:33.494Z,4.60
2023-05-19T10:07:25.334Z,4.70
2023-05-19T10:09:59.219Z,5.10
2023-05-19T10:17:11.904Z,4.70
2023-05-19T10:20:44.086Z,5.70
2023-05-19T10:23:35.722Z,4.60
2023-05-19T10:26:43.451Z,4.60
2023-05-19T10:29:27.509Z,4.30
2023-05-19T10:29:33.752Z,4.70
2023-05-19T10:32:35.213Z,4.80
2023-05-19T10:35:27.205Z,5.00
2023-05-19T10:38:26.109Z,4.80
2023-05-19T10:41:29.642Z,4.40
2023-05-19T10:44:28.196Z,4.50
2023-05-19T10:47:19.747Z,4.90
2023-05-19T10:50:20.469Z,4.80
2023-05-19T10:53:29.910Z,4.60
2023-05-19T10:56:20.859Z,4.90
2023-05-19T11:03:07.547Z,4.80
2023-05-19T11:12:52.402Z,4.20
2023-05-19T11:15:29.272Z,4.50
2023-05-19T11:18:01.855Z,6.30
2023-05-19T11:21:06.696Z,4.50
2023-05-19T11:33:05.302Z,4.50
2023-05-19T11:47:07.468Z,4.90
2023-05-19T11:53:20.804Z,5.40
2023-05-19T12:00:50.549Z,5.40
2023-05-19T12:04:37.273Z,6.50
2023-05-19T12:14:04.388Z,6.00
2023-05-19T12:32:21.642Z,6.20
2023-05-19T12:39:05.521Z,5.70
2023-05-19T12:43:10.722Z,6.00
2023-05-19T12:45:16.991Z,6.00
2023-05-19T12:48:02.528Z,6.10
2023-05-19T12:50:41.262Z,5.60
2023-05-19T12:54:16.754Z,5.50
2023-05-19T12:56:58.896Z,5.40
2023-05-19T12:59:38.372Z,5.70
2023-05-19T13:02:12.050Z,4.90
2023-05-19T13:08:26.067Z,6.20
2023-05-19T13:11:39.031Z,5.90
2023-05-19T13:20:34.538Z,5.40
2023-05-19T13:24:11.529Z,5.40
2023-05-19T13:28:41.245Z,5.40
2023-05-19T13:31:27.322Z,5.30
2023-05-19T13:37:38.090Z,5.50
2023-05-19T13:40:51.049Z,5.20
2023-05-19T13:46:56.546Z,4.90
2023-05-19T13:53:46.160Z,8.20
2023-05-19T13:56:14.406Z,5.70
2023-05-19T13:58:42.729Z,4.80
2023-05-19T14:01:13.173Z,5.10
2023-05-19T14:03:45.075Z,5.10
2023-05-19T14:06:17.249Z,5.70
2023-05-19T14:08:45.652Z,6.30
2023-05-19T14:11:40.605Z,5.60
2023-05-19T14:14:11.535Z,6.40
2023-05-19T14:16:45.388Z,6.20
2023-05-19T14:19:37.353Z,7.40
2023-05-19T14:25:18.719Z,8.00
2023-05-19T14:26:13.451Z,8.50
2023-05-19T14:28:01.301Z,9.50
2023-05-19T14:30:34.361Z,12.20
2023-05-19T14:33:13.413Z,12.70
2023-05-19T14:35:59.519Z,10.30
2023-05-19T14:38:29.384Z,9.30
2023-05-19T14:41:13.587Z,9.00
2023-05-19T14:43:47.023Z,11.50
2023-05-19T14:46:22.670Z,12.30
2023-05-19T14:49:01.022Z,12.30
2023-05-19T14:51:31.791Z,13.60
2023-05-19T14:54:01.548Z,9.90
2023-05-19T14:56:38.496Z,12.80
2023-05-19T14:59:15.772Z,15.40
2023-05-19T15:15:11.654Z,7.50
2023-05-19T15:17:58.230Z,6.60
2023-05-19T15:24:05.248Z,6.20
2023-05-19T15:26:41.682Z,6.10
2023-05-19T15:29:33.870Z,6.90
2023-05-19T15:32:08.143Z,7.10
2023-05-19T15:34:38.967Z,6.80
2023-05-19T15:37:09.980Z,6.30
2023-05-19T15:39:41.226Z,6.70
2023-05-19T15:42:13.936Z,6.20
2023-05-19T15:44:50.306Z,7.10
2023-05-19T15:47:24.565Z,6.70
2023-05-19T15:50:12.899Z,6.80
2023-05-19T16:00:08.730Z,6.70
2023-05-19T16:02:45.499Z,6.80
2023-05-19T16:05:16.780Z,8.00
2023-05-19T16:07:45.277Z,7.60
2023-05-19T16:10:15.945Z,7.80
2023-05-19T16:12:44.131Z,7.70
2023-05-19T16:15:19.993Z,7.50
2023-05-19T16:17:53.912Z,8.20
2023-05-19T16:20:29.382Z,10.30
2023-05-19T16:22:57.630Z,10.00
2023-05-19T16:25:25.779Z,9.20
2023-05-19T16:27:54.072Z,9.60
2023-05-19T16:30:23.178Z,9.80
2023-05-19T16:32:53.270Z,9.60
2023-05-19T16:35:27.852Z,7.30
2023-05-19T16:40:24.290Z,7.70
2023-05-19T16:42:56.126Z,8.30
2023-05-19T16:45:27.629Z,7.70
2023-05-19T16:47:55.978Z,7.50
2023-05-19T16:50:24.346Z,8.10
2023-05-19T16:52:52.794Z,7.40
2023-05-19T16:55:22.755Z,8.70
2023-05-19T16:58:00.779Z,8.70
2023-05-19T17:00:45.386Z,9.10
2023-05-19T17:03:38.949Z,8.80
2023-05-19T17:06:22.262Z,8.40
2023-05-19T17:09:05.365Z,8.40
2023-05-19T17:11:49.313Z,10.80
2023-05-19T17:14:44.940Z,10.60
2023-05-19T17:18:04.727Z,8.70
2023-05-19T17:24:16.532Z,10.90
2023-05-19T17:31:44.239Z,12.20
2023-05-19T17:34:34.931Z,11.70
2023-05-19T17:40:37.011Z,12.20
2023-05-19T17:43:08.401Z,11.90
2023-05-19T17:45:53.495Z,9.00
2023-05-19T17:48:25.934Z,7.50
2023-05-19T17:51:11.161Z,6.20
2023-05-19T17:53:46.721Z,6.10
2023-05-19T17:56:18.055Z,5.20
2023-05-19T18:01:27.516Z,5.30
2023-05-19T18:03:59.345Z,5.30
2023-05-19T18:06:51.743Z,5.60
2023-05-19T18:09:23.344Z,6.00
2023-05-19T18:11:55.265Z,5.90
2023-05-19T18:14:29.624Z,6.80
2023-05-19T18:17:06.507Z,6.10
2023-05-19T18:19:37.787Z,6.50
2023-05-19T18:22:07.579Z,6.50
2023-05-19T18:24:43.400Z,7.00
2023-05-19T18:27:19.061Z,6.80
2023-05-19T18:29:47.444Z,6.60
2023-05-19T18:32:18.258Z,6.80
2023-05-19T18:34:47.226Z,7.50
2023-05-19T18:37:15.424Z,6.80
2023-05-19T18:39:43.676Z,7.80
2023-05-19T18:42:11.832Z,7.00
2023-05-19T18:44:40.130Z,7.70
2023-05-19T18:47:10.532Z,8.10
2023-05-19T18:49:38.985Z,8.00
2023-05-19T18:52:07.429Z,7.60
2023-05-19T18:55:09.375Z,8.40
2023-05-19T18:58:05.060Z,7.40
2023-05-19T19:00:52.677Z,8.00
2023-05-19T19:06:31.893Z,8.80
2023-05-19T19:09:10.377Z,9.40
2023-05-19T19:15:16.463Z,9.20
2023-05-19T19:17:54.954Z,8.80
2023-05-19T19:21:01.548Z,8.70
2023-05-19T19:23:34.499Z,8.90
2023-05-19T19:26:07.593Z,8.90
2023-05-19T19:28:50.033Z,9.30
2023-05-19T19:31:27.959Z,10.60
2023-05-19T19:35:00.075Z,9.70
2023-05-19T19:41:39.475Z,8.90
2023-05-19T19:44:08.632Z,9.30
2023-05-19T19:47:14.637Z,9.70
2023-05-19T19:50:07.456Z,8.90
2023-05-19T19:52:55.500Z,9.30
2023-05-19T19:56:07.399Z,9.30
2023-05-19T19:59:29.404Z,9.70
2023-05-19T20:02:04.212Z,10.30
2023-05-19T20:07:42.324Z,11.70
2023-05-19T20:10:43.002Z,10.40
2023-05-19T20:13:40.067Z,11.00
2023-05-19T20:16:45.962Z,10.50
2023-05-19T20:19:56.416Z,10.10
2023-05-19T20:22:45.893Z,10.70
2023-05-19T20:26:03.034Z,10.90
2023-05-19T20:28:45.237Z,11.80
2023-05-19T20:31:15.368Z,9.80
2023-05-19T20:34:31.501Z,11.30
2023-05-19T20:37:01.071Z,11.20
2023-05-19T20:39:31.196Z,12.20
2023-05-19T20:42:22.905Z,12.30
2023-05-19T20:45:11.789Z,13.10
2023-05-19T20:48:12.635Z,12.50
2023-05-19T20:51:09.973Z,12.80
2023-05-19T21:05:58.706Z,15.00
2023-05-19T21:09:15.311Z,13.80
2023-05-19T21:16:23.366Z,14.30
2023-05-19T21:31:44.885Z,13.10
2023-05-19T21:34:25.573Z,13.80
2023-05-19T22:34:43.930Z,14.60
2023-05-19T22:38:15.913Z,12.40
2023-05-19T22:41:25.817Z,13.30
2023-05-19T22:44:15.488Z,13.60
2023-05-19T22:46:50.092Z,13.90
2023-05-19T22:49:23.434Z,14.20
2023-05-19T22:51:54.208Z,13.10
2023-05-19T22:54:22.914Z,13.70
2023-05-19T22:57:05.745Z,13.60
2023-05-19T23:03:29.441Z,13.00
2023-05-19T23:05:57.904Z,13.40
2023-05-19T23:11:58.631Z,12.80
2023-05-19T23:14:33.752Z,13.90
2023-05-19T23:17:25.405Z,12.30
2023-05-19T23:20:06.601Z,13.70
2023-05-19T23:22:43.293Z,13.80
2023-05-19T23:25:49.408Z,13.40
2023-05-19T23:29:26.558Z,14.30
2023-05-19T23:39:04.738Z,12.90
2023-05-19T23:44:10.891Z,13.60
2023-05-19T23:47:23.679Z,13.80
2023-05-19T23:50:33.449Z,13.40
2023-05-19T23:53:43.736Z,13.60
2023-05-19T23:57:49.176Z,13.20
